createdAt,value
2022-08-22T00:01:14.802Z,2.60
2022-08-22T00:02:48.678Z,3.60
2022-08-22T00:03:04.983Z,3.20
2022-08-22T00:03:06.480Z,2.75
2022-08-22T00:03:12.109Z,3.25
2022-08-22T00:04:36.799Z,3.37
2022-08-22T00:08:03.643Z,2.83
2022-08-22T00:11:52.923Z,2.45
2022-08-22T00:15:31.520Z,4.25
2022-08-22T00:18:45.049Z,3.42
2022-08-22T00:21:58.676Z,3.83
2022-08-22T00:25:25.431Z,4.10
2022-08-22T00:28:44.335Z,4.70
2022-08-22T00:31:54.627Z,7.03
2022-08-22T00:35:14.948Z,10.02
2022-08-22T00:38:32.525Z,7.80
2022-08-22T00:42:01.493Z,8.05
2022-08-22T00:45:28.923Z,5.60
2022-08-22T00:48:43.301Z,4.10
2022-08-22T00:52:14.239Z,4.45
2022-08-22T00:55:22.847Z,3.75
2022-08-22T00:58:59.756Z,3.97
2022-08-22T01:02:50.492Z,3.22
2022-08-22T01:06:45.027Z,2.87
2022-08-22T01:10:17.492Z,2.47
2022-08-22T01:13:44.343Z,1.55
2022-08-22T01:16:55.973Z,2.87
2022-08-22T01:20:28.220Z,1.70
2022-08-22T01:24:04.146Z,2.37
2022-08-22T01:27:47.983Z,3.25
2022-08-22T01:31:01.441Z,2.00
2022-08-22T01:34:19.618Z,2.10
2022-08-22T01:37:22.007Z,1.77
2022-08-22T01:44:01.051Z,2.95
2022-08-22T01:47:13.277Z,1.75
2022-08-22T01:50:25.229Z,1.65
2022-08-22T01:53:47.042Z,5.32
2022-08-22T01:56:49.640Z,2.35
2022-08-22T01:59:57.442Z,2.45
2022-08-22T02:03:25.186Z,2.03
2022-08-22T02:06:44.948Z,2.83
2022-08-22T02:10:18.607Z,2.67
2022-08-22T02:13:59.430Z,2.00
2022-08-22T02:17:25.394Z,1.90
2022-08-22T02:20:47.362Z,2.10
2022-08-22T02:23:49.709Z,2.42
2022-08-22T02:27:12.989Z,1.87
2022-08-22T02:30:51.979Z,1.80
2022-08-22T02:34:02.427Z,3.42
2022-08-22T02:37:13.065Z,1.83
2022-08-22T02:40:37.605Z,1.95
2022-08-22T02:43:54.940Z,2.20
2022-08-22T02:47:09.019Z,3.42
2022-08-22T02:50:21.135Z,2.65
2022-08-22T02:53:48.530Z,3.22
2022-08-22T02:57:00.930Z,2.15
2022-08-22T03:00:30.938Z,3.62
2022-08-22T03:03:39.793Z,5.30
2022-08-22T03:07:00.100Z,2.15
2022-08-22T03:10:16.615Z,2.72
2022-08-22T03:13:37.632Z,2.72
2022-08-22T03:16:54.972Z,4.10
2022-08-22T03:20:14.989Z,2.80
2022-08-22T03:23:25.751Z,2.85
2022-08-22T03:26:56.696Z,3.00
2022-08-22T03:30:19.907Z,2.85
2022-08-22T03:33:26.344Z,3.58
2022-08-22T03:36:31.389Z,4.20
2022-08-22T03:40:06.926Z,3.58
2022-08-22T03:43:54.299Z,3.20
2022-08-22T03:47:22.025Z,4.00
2022-08-22T03:50:45.739Z,2.92
2022-08-22T03:54:09.498Z,4.00
2022-08-22T03:57:30.494Z,3.58
2022-08-22T04:00:58.499Z,3.50
2022-08-22T04:04:38.552Z,3.35
2022-08-22T04:08:03.510Z,4.72
2022-08-22T04:11:46.214Z,4.07
2022-08-22T04:15:14.325Z,6.00
2022-08-22T04:18:27.386Z,4.22
2022-08-22T04:25:15.180Z,6.28
2022-08-22T04:28:51.728Z,5.12
2022-08-22T04:32:14.696Z,3.80
2022-08-22T04:35:35.381Z,4.15
2022-08-22T04:38:47.756Z,4.20
2022-08-22T04:42:06.971Z,4.90
2022-08-22T04:45:31.756Z,4.55
2022-08-22T04:48:40.913Z,5.53
2022-08-22T04:52:16.019Z,3.50
2022-08-22T04:55:31.102Z,4.10
2022-08-22T04:58:46.324Z,4.05
2022-08-22T05:01:55.058Z,4.68
2022-08-22T05:05:13.089Z,5.03
2022-08-22T05:08:23.169Z,7.05
2022-08-22T05:11:27.599Z,5.75
2022-08-22T05:14:58.616Z,6.85
2022-08-22T05:18:09.395Z,8.68
2022-08-22T05:21:14.414Z,6.87
2022-08-22T05:24:39.847Z,5.07
2022-08-22T05:27:48.272Z,6.03
2022-08-22T05:30:51.563Z,5.28
2022-08-22T05:34:03.706Z,6.05
2022-08-22T05:37:17.655Z,5.67
2022-08-22T05:40:27.023Z,6.75
2022-08-22T05:43:31.267Z,7.25
2022-08-22T05:46:42.401Z,6.35
2022-08-22T05:50:02.114Z,5.03
2022-08-22T05:53:10.778Z,6.93
2022-08-22T05:56:23.266Z,7.07
2022-08-22T05:59:32.919Z,6.15
2022-08-22T06:02:51.358Z,5.95
2022-08-22T06:05:59.015Z,6.12
2022-08-22T06:09:03.614Z,9.82
2022-08-22T06:12:21.776Z,8.40
2022-08-22T06:15:40.345Z,8.68
2022-08-22T06:18:45.747Z,5.90
2022-08-22T06:21:51.068Z,6.12
2022-08-22T06:25:05.612Z,7.55
2022-08-22T06:28:13.598Z,6.68
2022-08-22T06:31:30.007Z,9.60
2022-08-22T06:34:38.301Z,6.18
2022-08-22T06:37:45.914Z,7.78
2022-08-22T06:40:53.167Z,7.03
2022-08-22T06:43:58.964Z,6.75
2022-08-22T06:47:07.352Z,7.15
2022-08-22T06:50:15.008Z,8.88
2022-08-22T06:53:27.277Z,14.80
2022-08-22T06:56:38.789Z,14.25
2022-08-22T06:59:43.928Z,10.15
2022-08-22T07:02:53.072Z,8.23
2022-08-22T07:05:57.267Z,12.15
2022-08-22T07:09:00.287Z,9.25
2022-08-22T07:12:20.222Z,10.73
2022-08-22T07:15:35.019Z,10.57
2022-08-22T07:18:48.225Z,8.27
2022-08-22T07:21:52.227Z,8.98
2022-08-22T07:25:09.640Z,8.73
2022-08-22T07:28:18.178Z,11.75
2022-08-22T07:31:41.957Z,11.75
2022-08-22T07:35:16.029Z,7.43
2022-08-22T07:38:51.896Z,8.55
2022-08-22T07:42:18.945Z,11.55
2022-08-22T07:45:36.154Z,10.77
2022-08-22T07:49:08.638Z,10.75
2022-08-22T07:55:24.668Z,7.87
2022-08-22T07:58:31.202Z,10.02
2022-08-22T08:01:35.598Z,9.38
2022-08-22T08:04:40.975Z,12.80
2022-08-22T08:07:45.858Z,9.95
2022-08-22T08:10:51.004Z,9.52
2022-08-22T08:13:59.282Z,11.60
2022-08-22T08:17:19.575Z,14.15
2022-08-22T08:20:25.159Z,12.18
2022-08-22T08:23:34.963Z,11.75
2022-08-22T08:27:03.945Z,18.17
2022-08-22T08:30:29.989Z,8.82
2022-08-22T08:33:36.915Z,10.55
2022-08-22T08:37:02.328Z,10.65
2022-08-22T08:40:38.614Z,11.70
2022-08-22T08:44:13.887Z,11.12
2022-08-22T08:47:28.504Z,9.07
2022-08-22T08:51:04.235Z,8.18
2022-08-22T08:54:26.349Z,8.32
2022-08-22T08:57:51.155Z,12.25
2022-08-22T09:01:03.058Z,7.82
2022-08-22T09:04:16.737Z,10.45
2022-08-22T09:08:00.915Z,9.17
2022-08-22T09:11:28.553Z,9.15
2022-08-22T09:14:52.449Z,12.05
2022-08-22T09:18:37.717Z,9.68
2022-08-22T09:21:44.067Z,9.55
2022-08-22T09:24:46.993Z,11.43
2022-08-22T09:28:09.869Z,13.20
2022-08-22T09:31:44.856Z,9.68
2022-08-22T09:35:11.758Z,11.15
2022-08-22T09:38:46.671Z,8.50
2022-08-22T09:42:44.813Z,10.57
2022-08-22T09:46:13.786Z,10.45
2022-08-22T09:49:57.067Z,9.52
2022-08-22T09:53:38.290Z,9.35
2022-08-22T09:57:00.740Z,11.73
2022-08-22T10:00:10.510Z,9.18
2022-08-22T10:03:45.547Z,8.85
2022-08-22T10:07:13.428Z,10.63
2022-08-22T10:10:34.998Z,9.13
2022-08-22T10:14:01.708Z,8.15
2022-08-22T10:17:21.914Z,9.38
2022-08-22T10:20:50.045Z,8.85
2022-08-22T10:24:14.494Z,8.07
2022-08-22T10:27:57.531Z,11.27
2022-08-22T10:31:08.014Z,7.68
2022-08-22T10:34:20.316Z,11.35
2022-08-22T10:37:32.732Z,8.45
2022-08-22T10:40:52.067Z,8.60
2022-08-22T10:44:17.912Z,9.77
2022-08-22T10:47:52.534Z,8.30
2022-08-22T10:51:10.032Z,7.97
2022-08-22T10:54:28.907Z,8.13
2022-08-22T10:57:44.158Z,10.52
2022-08-22T11:00:54.994Z,9.55
2022-08-22T11:04:19.819Z,7.57
2022-08-22T11:07:50.676Z,9.52
2022-08-22T11:11:16.048Z,10.20
2022-08-22T11:14:31.572Z,8.63
2022-08-22T11:17:54.527Z,10.35
2022-08-22T11:25:04.714Z,7.87
2022-08-22T11:28:26.197Z,9.57
2022-08-22T11:32:06.225Z,9.23
2022-08-22T11:35:26.158Z,9.73
2022-08-22T11:38:53.949Z,6.53
2022-08-22T11:42:13.584Z,7.43
2022-08-22T11:45:25.680Z,6.70
2022-08-22T11:48:51.326Z,8.27
2022-08-22T11:52:13.341Z,11.27
2022-08-22T11:55:34.671Z,7.87
2022-08-22T12:02:27.100Z,17.45
2022-08-22T12:05:41.494Z,15.02
2022-08-22T12:08:49.463Z,8.43
2022-08-22T12:12:31.020Z,10.30
2022-08-22T12:15:39.496Z,10.00
2022-08-22T12:19:19.509Z,9.10
2022-08-22T12:22:50.022Z,16.20
2022-08-22T12:26:04.919Z,14.02
2022-08-22T12:29:34.128Z,10.30
2022-08-22T12:33:10.304Z,10.10
2022-08-22T12:36:34.321Z,12.27
2022-08-22T12:39:44.011Z,19.12
2022-08-22T12:42:57.423Z,11.27
2022-08-22T12:46:13.094Z,11.85
2022-08-22T12:49:57.395Z,9.20
2022-08-22T12:53:09.268Z,9.00
2022-08-22T12:56:31.573Z,10.80
2022-08-22T12:59:41.675Z,12.00
2022-08-22T13:02:45.375Z,8.57
2022-08-22T13:05:56.261Z,9.35
2022-08-22T13:09:11.074Z,10.85
2022-08-22T13:12:25.719Z,12.43
2022-08-22T13:15:31.917Z,15.10
2022-08-22T13:18:47.320Z,14.43
2022-08-22T13:22:11.809Z,14.52
2022-08-22T13:25:25.452Z,19.50
2022-08-22T13:28:31.881Z,13.45
2022-08-22T13:31:38.810Z,15.85
2022-08-22T13:34:50.589Z,15.60
2022-08-22T13:38:03.291Z,13.77
2022-08-22T13:41:08.952Z,15.50
2022-08-22T13:44:31.450Z,12.52
2022-08-22T13:47:45.704Z,15.32
2022-08-22T13:51:03.696Z,15.35
2022-08-22T13:54:11.106Z,12.25
2022-08-22T13:57:17.830Z,12.52
2022-08-22T14:00:28.652Z,13.73
2022-08-22T14:03:49.101Z,13.80
2022-08-22T14:06:56.682Z,13.57
2022-08-22T14:10:20.181Z,11.93
2022-08-22T14:13:44.727Z,13.05
2022-08-22T14:16:52.059Z,12.63
2022-08-22T14:20:02.167Z,11.68
2022-08-22T14:23:27.295Z,13.15
2022-08-22T14:26:37.267Z,12.70
2022-08-22T14:29:55.166Z,12.18
2022-08-22T14:33:20.823Z,13.73
2022-08-22T14:36:29.666Z,15.40
2022-08-22T14:39:48.033Z,11.25
2022-08-22T14:43:15.280Z,11.15
2022-08-22T14:46:33.928Z,9.32
2022-08-22T14:49:55.444Z,8.48
2022-08-22T14:53:25.117Z,11.10
2022-08-22T14:56:30.092Z,6.03
2022-08-22T14:59:37.071Z,6.62
2022-08-22T15:02:41.111Z,5.07
2022-08-22T15:06:21.866Z,7.47
2022-08-22T15:09:40.538Z,4.87
2022-08-22T15:12:51.472Z,5.35
2022-08-22T15:15:59.795Z,4.28
2022-08-22T15:22:28.004Z,3.90
2022-08-22T15:25:35.234Z,3.53
2022-08-22T15:28:52.494Z,3.92
2022-08-22T15:32:01.089Z,3.72
2022-08-22T15:35:11.548Z,5.07
2022-08-22T15:38:28.539Z,2.65
2022-08-22T15:41:36.249Z,3.17
2022-08-22T15:44:44.230Z,3.35
2022-08-22T15:47:52.095Z,4.25
2022-08-22T15:51:10.391Z,3.15
2022-08-22T15:54:35.954Z,2.90
2022-08-22T15:57:47.480Z,3.05
2022-08-22T16:01:19.783Z,2.90
2022-08-22T16:04:37.627Z,3.42
2022-08-22T16:07:46.014Z,4.18
2022-08-22T16:11:24.158Z,3.53
2022-08-22T16:14:32.927Z,3.20
2022-08-22T16:17:43.189Z,3.22
2022-08-22T16:20:51.901Z,3.80
2022-08-22T16:23:56.382Z,3.03
2022-08-22T16:27:14.496Z,4.40
2022-08-22T16:30:32.720Z,3.30
2022-08-22T16:33:40.651Z,2.90
2022-08-22T16:36:49.529Z,2.70
2022-08-22T16:40:01.657Z,3.22
2022-08-22T16:43:19.949Z,3.50
2022-08-22T16:46:33.205Z,3.85
2022-08-22T16:49:55.738Z,3.00
2022-08-22T16:53:10.326Z,2.90
2022-08-22T16:56:35.058Z,2.67
2022-08-22T16:59:55.576Z,3.25
2022-08-22T17:03:23.445Z,4.25
2022-08-22T17:06:50.779Z,5.05
2022-08-22T17:10:10.212Z,4.30
2022-08-22T17:13:20.636Z,3.40
2022-08-22T17:16:41.279Z,3.20
2022-08-22T17:20:05.617Z,3.37
2022-08-22T17:23:42.098Z,6.57
2022-08-22T17:26:57.793Z,3.03
2022-08-22T17:30:12.121Z,3.90
2022-08-22T17:33:28.527Z,3.90
2022-08-22T17:36:39.395Z,4.03
2022-08-22T17:39:56.529Z,4.22
2022-08-22T17:43:14.999Z,6.05
2022-08-22T17:46:35.811Z,3.87
2022-08-22T17:49:41.400Z,3.30
2022-08-22T17:52:55.537Z,3.33
2022-08-22T17:56:14.196Z,4.03
2022-08-22T17:59:26.358Z,3.58
2022-08-22T18:02:39.365Z,3.73
2022-08-22T18:06:09.303Z,3.17
2022-08-22T18:09:25.816Z,3.30
2022-08-22T18:12:44.712Z,2.47
2022-08-22T18:15:52.196Z,2.10
2022-08-22T18:18:57.693Z,4.32
2022-08-22T18:22:07.825Z,2.17
2022-08-22T18:25:20.020Z,3.12
2022-08-22T18:28:34.130Z,1.77
2022-08-22T18:32:17.431Z,2.95
2022-08-22T18:35:49.850Z,2.15
2022-08-22T18:39:22.036Z,3.37
2022-08-22T18:42:35.170Z,2.90
2022-08-22T18:45:47.086Z,3.87
2022-08-22T18:49:14.251Z,5.95
2022-08-22T18:52:18.535Z,2.25
2022-08-22T18:55:51.660Z,3.58
2022-08-22T18:59:13.005Z,3.83
2022-08-22T19:02:41.349Z,2.53
2022-08-22T19:06:09.350Z,1.98
2022-08-22T19:09:32.153Z,3.42
2022-08-22T19:12:50.141Z,3.92
2022-08-22T19:16:25.306Z,2.25
2022-08-22T19:20:02.183Z,2.58
2022-08-22T19:23:33.972Z,2.47
2022-08-22T19:26:43.881Z,2.78
2022-08-22T19:29:46.303Z,2.22
2022-08-22T19:32:49.991Z,1.90
2022-08-22T19:35:52.568Z,1.30
2022-08-22T19:39:09.122Z,1.52
2022-08-22T19:42:27.683Z,3.33
2022-08-22T19:45:32.310Z,1.65
2022-08-22T19:48:44.585Z,2.28
2022-08-22T19:55:08.834Z,1.55
2022-08-22T19:58:41.049Z,2.33
2022-08-22T20:01:51.214Z,1.42
2022-08-22T20:05:03.546Z,2.85
2022-08-22T20:08:11.558Z,2.12
2022-08-22T20:12:02.753Z,3.10
2022-08-22T20:15:26.793Z,2.42
2022-08-22T20:19:06.612Z,3.37
2022-08-22T20:22:24.356Z,2.08
2022-08-22T20:25:50.314Z,2.28
2022-08-22T20:28:54.236Z,2.42
2022-08-22T20:31:59.065Z,2.28
2022-08-22T20:35:05.624Z,3.12
2022-08-22T20:38:16.834Z,4.85
2022-08-22T20:41:22.534Z,3.75
2022-08-22T20:44:28.553Z,3.92
2022-08-22T20:47:41.138Z,3.40
2022-08-22T20:50:44.764Z,3.00
2022-08-22T20:54:02.300Z,3.28
2022-08-22T20:57:19.293Z,2.90
2022-08-22T21:00:41.119Z,3.95
2022-08-22T21:03:50.882Z,3.53
2022-08-22T21:07:02.297Z,2.42
2022-08-22T21:10:42.916Z,2.95
2022-08-22T21:13:49.086Z,2.10
2022-08-22T21:16:53.215Z,3.05
2022-08-22T21:19:57.932Z,3.35
2022-08-22T21:23:08.838Z,1.98
2022-08-22T21:26:28.808Z,1.90
2022-08-22T21:29:42.219Z,3.22
2022-08-22T21:32:52.294Z,2.15
2022-08-22T21:35:59.561Z,1.80
2022-08-22T21:39:12.631Z,3.05
2022-08-22T21:42:26.772Z,2.37
2022-08-22T21:45:34.297Z,2.62
2022-08-22T21:49:02.786Z,2.35
2022-08-22T21:52:05.301Z,2.50
2022-08-22T21:55:38.895Z,2.78
2022-08-22T21:58:42.280Z,2.60
2022-08-22T22:01:47.230Z,2.80
2022-08-22T22:04:50.216Z,2.95
2022-08-22T22:07:52.846Z,3.67
2022-08-22T22:11:01.290Z,3.20
2022-08-22T22:14:04.100Z,2.35
2022-08-22T22:20:10.051Z,2.90
2022-08-22T22:23:12.969Z,5.12
2022-08-22T22:29:19.376Z,4.85
2022-08-22T22:32:22.437Z,3.95
2022-08-22T22:35:25.300Z,3.65
2022-08-22T22:38:27.939Z,4.65
2022-08-22T22:41:30.796Z,4.35
2022-08-22T22:47:37.627Z,4.40
2022-08-22T22:50:40.684Z,6.87
2022-08-22T22:53:44.900Z,6.53
2022-08-22T22:56:48.031Z,5.00
2022-08-22T22:59:51.144Z,4.80
2022-08-22T23:05:56.311Z,5.53
2022-08-22T23:08:59.020Z,5.65
2022-08-22T23:12:03.190Z,5.72
2022-08-22T23:15:08.254Z,5.60
2022-08-22T23:18:11.087Z,5.28
2022-08-22T23:21:19.918Z,5.62
2022-08-22T23:24:24.001Z,5.80
2022-08-22T23:27:26.687Z,5.30
2022-08-22T23:36:39.534Z,6.30
2022-08-22T23:39:42.971Z,5.00
2022-08-22T23:42:45.782Z,6.37
2022-08-22T23:45:48.468Z,6.05
2022-08-22T23:51:54.778Z,7.22
2022-08-22T23:54:57.599Z,7.90
2022-08-22T23:58:00.405Z,6.55
